Hovedside
METAR-TAF:

METAR-TAF

Lufthavner :

Kronoby lufthavn

Karleby, Finland

breddegrad: 63-43N, lengdegrad: 023-09E, høyde over havet: 25 m

Gjeldene værobservasjon

Denne rapporten ble laget for 40 minutter siden, klokken 22:20 UTC
Vind 9 kt fra Sør
Temperatur 3°C
Luftfuktighet 100%
Trykk 1021 hPa
Sikt: 4900 m
Overskyet i en høyde av 100 ft
dis

METAR: EFKK 142220Z 17009KT 4900 BR OVC001 03/03 Q1021

Tid: 01:00 (23:00 UTC)

Varsel

Denne rapporten ble laget for 11 minutter siden, klokken 22:49 UTC
Varsel gyldig fra 14. klokken 23 UTC til 14. klokken 24 UTC
Vind 9 kt fra Sør
Sikt 10 km eller mer
Overskyet i en høyde av 200 ft
Sannsynlighet 30%
fra 14. klokken 23 UTC til 14. klokken 24 UTC
Sikt: 2500 m
Brutte skyer i en høyde av 100 ft
dis

TAF: EFKK 142249Z 1423/1424 18009KT 9999 OVC002 PROB30 1423/1424 2500 BR BKN001

Værobservasjoner og værvarsel for over 4000 flyplasser (METAR- og TAF-rapporter).

Tilgjengelige stasjoner er representert av de røde og gule prikkene på kartet.

Hold musepekeren over prikken for å se navnet på stasjonen.

Klikk så for å se værobservasjoner og -varsler.

For å forandre kartet kan du klikke på den grønne knappen med svart kryss for å zoome inn, på den grønne knappen med strek for å zoome ut, eller på de grønne pilene for å se tilstøtende kart.


METAR-TAF: